sensor_id;sensor_type;location;lat;lon;timestamp;pressure;altitude;pressure_sealevel;temperature;humidity
62544;BME280;48597;49.030;1.822;2022-11-09T00:00:44;99913.44;;;18.74;54.47
62544;BME280;48597;49.030;1.822;2022-11-09T00:03:10;99918.69;;;18.76;54.26
62544;BME280;48597;49.030;1.822;2022-11-09T00:05:36;99912.53;;;18.77;54.41
62544;BME280;48597;49.030;1.822;2022-11-09T00:08:04;99905.09;;;18.80;54.39
62544;BME280;48597;49.030;1.822;2022-11-09T00:10:31;99894.81;;;18.82;54.26
62544;BME280;48597;49.030;1.822;2022-11-09T00:12:56;99894.31;;;18.84;54.35
62544;BME280;48597;49.030;1.822;2022-11-09T00:15:22;99893.84;;;18.85;54.21
62544;BME280;48597;49.030;1.822;2022-11-09T00:17:47;99896.69;;;18.85;54.33
62544;BME280;48597;49.030;1.822;2022-11-09T00:20:12;99901.16;;;18.86;54.27
62544;BME280;48597;49.030;1.822;2022-11-09T00:22:38;99899.44;;;18.89;54.27
62544;BME280;48597;49.030;1.822;2022-11-09T00:25:03;99905.47;;;18.91;54.29
62544;BME280;48597;49.030;1.822;2022-11-09T00:27:29;99909.13;;;18.91;54.17
62544;BME280;48597;49.030;1.822;2022-11-09T00:29:54;99921.66;;;18.94;54.31
62544;BME280;48597;49.030;1.822;2022-11-09T00:32:19;99927.69;;;18.96;54.10
62544;BME280;48597;49.030;1.822;2022-11-09T00:34:45;99928.81;;;18.99;54.04
62544;BME280;48597;49.030;1.822;2022-11-09T00:37:10;99925.84;;;19.02;54.10
62544;BME280;48597;49.030;1.822;2022-11-09T00:39:35;99937.59;;;19.04;54.05
62544;BME280;48597;49.030;1.822;2022-11-09T00:42:01;99936.31;;;19.05;53.86
62544;BME280;48597;49.030;1.822;2022-11-09T00:44:26;99935.88;;;19.07;54.15
62544;BME280;48597;49.030;1.822;2022-11-09T00:46:51;99943.16;;;19.08;54.06
62544;BME280;48597;49.030;1.822;2022-11-09T00:49:17;99943.16;;;19.08;54.10
62544;BME280;48597;49.030;1.822;2022-11-09T00:51:42;99939.81;;;19.09;53.99
62544;BME280;48597;49.030;1.822;2022-11-09T00:54:07;99943.47;;;19.10;54.02
62544;BME280;48597;49.030;1.822;2022-11-09T00:56:34;99933.63;;;19.11;54.15
62544;BME280;48597;49.030;1.822;2022-11-09T00:58:59;99939.69;;;19.13;54.00
62544;BME280;48597;49.030;1.822;2022-11-09T01:01:24;99949.38;;;19.15;54.16
62544;BME280;48597;49.030;1.822;2022-11-09T01:03:50;99943.22;;;19.17;53.89
62544;BME280;48597;49.030;1.822;2022-11-09T01:06:18;99954.16;;;19.18;53.94
62544;BME280;48597;49.030;1.822;2022-11-09T01:08:45;99948.00;;;19.20;53.91
62544;BME280;48597;49.030;1.822;2022-11-09T01:11:11;99957.66;;;19.22;53.81
62544;BME280;48597;49.030;1.822;2022-11-09T01:13:37;99958.78;;;19.25;53.80
62544;BME280;48597;49.030;1.822;2022-11-09T01:16:08;99954.66;;;19.26;53.81
62544;BME280;48597;49.030;1.822;2022-11-09T01:18:34;99955.00;;;19.28;53.82
62544;BME280;48597;49.030;1.822;2022-11-09T01:21:01;99948.03;;;19.29;53.71
62544;BME280;48597;49.030;1.822;2022-11-09T01:23:27;99966.75;;;19.30;53.71
62544;BME280;48597;49.030;1.822;2022-11-09T01:26:07;99960.59;;;19.32;53.55
62544;BME280;48597;49.030;1.822;2022-11-09T01:28:33;99959.31;;;19.33;53.54
62544;BME280;48597;49.030;1.822;2022-11-09T01:31:04;99962.97;;;19.33;53.62
62544;BME280;48597;49.030;1.822;2022-11-09T01:33:32;99960.91;;;19.34;53.57
62544;BME280;48597;49.030;1.822;2022-11-09T01:36:21;99967.44;;;19.34;53.34
62544;BME280;48597;49.030;1.822;2022-11-09T01:38:47;99964.56;;;19.34;53.55
62544;BME280;48597;49.030;1.822;2022-11-09T01:41:19;99966.13;;;19.35;53.48
62544;BME280;48597;49.030;1.822;2022-11-09T01:44:02;99966.94;;;19.36;53.51
62544;BME280;48597;49.030;1.822;2022-11-09T01:46:33;99969.78;;;19.36;53.54
62544;BME280;48597;49.030;1.822;2022-11-09T01:49:02;99966.94;;;19.36;53.53
62544;BME280;48597;49.030;1.822;2022-11-09T01:51:36;99958.38;;;19.36;53.52
62544;BME280;48597;49.030;1.822;2022-11-09T01:54:10;99960.41;;;19.35;53.45
62544;BME280;48597;49.030;1.822;2022-11-09T01:56:37;99962.00;;;19.36;53.41
62544;BME280;48597;49.030;1.822;2022-11-09T01:59:06;99966.94;;;19.36;53.42
62544;BME280;48597;49.030;1.822;2022-11-09T02:01:32;99966.94;;;19.36;53.44
62544;BME280;48597;49.030;1.822;2022-11-09T02:04:01;99973.44;;;19.36;53.51
62544;BME280;48597;49.030;1.822;2022-11-09T02:06:30;99969.00;;;19.35;53.35
62544;BME280;48597;49.030;1.822;2022-11-09T02:09:48;99981.22;;;19.36;53.38
62544;BME280;48597;49.030;1.822;2022-11-09T02:11:46;99983.28;;;19.35;53.47
